createdAt,value
2023-02-05T00:00:21.707Z,6.55
2023-02-05T00:02:49.403Z,6.70
2023-02-05T00:05:17.197Z,6.93
2023-02-05T00:07:44.906Z,6.65
2023-02-05T00:10:12.663Z,6.47
2023-02-05T00:12:40.451Z,6.72
2023-02-05T00:15:09.104Z,5.93
2023-02-05T00:17:38.252Z,5.88
2023-02-05T00:20:07.794Z,5.97
2023-02-05T00:22:35.629Z,6.75
2023-02-05T00:25:03.353Z,6.63
2023-02-05T00:27:31.085Z,6.53
2023-02-05T00:29:58.872Z,5.82
2023-02-05T00:32:26.616Z,5.90
2023-02-05T00:34:55.757Z,7.53
2023-02-05T00:37:23.454Z,9.05
2023-02-05T00:39:51.269Z,10.48
2023-02-05T00:42:18.991Z,15.45
2023-02-05T00:44:46.666Z,10.85
2023-02-05T00:47:14.409Z,9.93
2023-02-05T00:49:42.164Z,6.50
2023-02-05T00:52:11.229Z,6.68
2023-02-05T00:54:38.949Z,8.48
2023-02-05T00:57:06.874Z,9.93
2023-02-05T00:59:34.724Z,10.82
2023-02-05T01:02:02.502Z,9.25
2023-02-05T01:04:30.269Z,6.50
2023-02-05T01:06:57.994Z,5.60
2023-02-05T01:09:27.244Z,5.00
2023-02-05T01:11:54.984Z,5.35
2023-02-05T01:14:22.750Z,5.07
2023-02-05T01:16:50.621Z,4.82
2023-02-05T01:19:18.381Z,5.28
2023-02-05T01:21:46.148Z,4.75
2023-02-05T01:24:13.986Z,5.07
2023-02-05T01:26:43.126Z,4.75
2023-02-05T01:29:10.915Z,4.72
2023-02-05T01:31:38.776Z,4.00
2023-02-05T01:34:06.578Z,4.53
2023-02-05T01:36:34.307Z,4.40
2023-02-05T01:39:01.993Z,4.40
2023-02-05T01:41:29.853Z,4.78
2023-02-05T01:44:10.795Z,6.47
2023-02-05T01:46:41.044Z,6.10
2023-02-05T01:49:13.413Z,5.10
2023-02-05T01:51:41.734Z,5.90
2023-02-05T01:54:10.030Z,5.05
2023-02-05T01:56:41.010Z,4.60
2023-02-05T01:59:12.917Z,3.63
2023-02-05T02:01:42.023Z,4.07
2023-02-05T02:04:10.916Z,3.65
2023-02-05T02:06:39.363Z,4.00
2023-02-05T02:09:08.927Z,4.15
2023-02-05T02:11:42.393Z,3.47
2023-02-05T02:14:13.010Z,4.00
2023-02-05T02:16:41.934Z,3.78
2023-02-05T02:19:17.854Z,4.05
2023-02-05T02:22:12.793Z,4.50
2023-02-05T02:25:02.305Z,3.67
2023-02-05T02:27:46.851Z,4.03
2023-02-05T02:30:20.111Z,4.13
2023-02-05T02:32:53.563Z,4.00
2023-02-05T02:35:28.520Z,3.95
2023-02-05T02:38:02.321Z,3.92
2023-02-05T02:40:36.335Z,4.10
2023-02-05T02:43:11.038Z,4.47
2023-02-05T02:45:46.223Z,3.65
2023-02-05T02:48:16.778Z,3.63
2023-02-05T02:50:49.658Z,4.00
2023-02-05T02:55:48.734Z,4.05
2023-02-05T02:58:23.580Z,3.40
2023-02-05T03:00:53.613Z,3.90
2023-02-05T03:03:24.106Z,4.28
2023-02-05T03:05:55.005Z,4.28
2023-02-05T03:08:29.440Z,4.13
2023-02-05T03:11:02.611Z,4.40
2023-02-05T03:13:32.783Z,4.80
2023-02-05T03:16:01.434Z,4.15
2023-02-05T03:18:30.611Z,4.53
2023-02-05T03:21:01.907Z,4.40
2023-02-05T03:23:30.328Z,4.68
2023-02-05T03:25:58.136Z,4.00
2023-02-05T03:28:26.284Z,4.00
2023-02-05T03:31:04.543Z,4.05
2023-02-05T03:33:41.694Z,4.25
2023-02-05T03:36:21.606Z,4.10
2023-02-05T03:39:05.170Z,3.97
2023-02-05T03:41:59.635Z,4.00
2023-02-05T03:44:38.864Z,4.30
2023-02-05T03:47:17.499Z,4.45
2023-02-05T03:49:53.412Z,4.10
2023-02-05T03:52:25.477Z,4.65
2023-02-05T03:55:04.779Z,4.50
2023-02-05T03:57:36.702Z,4.90
2023-02-05T04:00:05.596Z,5.88
2023-02-05T04:02:35.048Z,5.53
2023-02-05T04:05:02.891Z,5.15
2023-02-05T04:07:30.822Z,4.43
2023-02-05T04:09:58.582Z,4.68
2023-02-05T04:12:26.371Z,4.63
2023-02-05T04:14:54.147Z,4.68
2023-02-05T04:17:21.847Z,4.72
2023-02-05T04:19:50.978Z,5.70
2023-02-05T04:22:18.659Z,4.82
2023-02-05T04:24:46.441Z,5.32
2023-02-05T04:27:14.212Z,4.70
2023-02-05T04:29:41.987Z,5.00
2023-02-05T04:32:09.847Z,4.82
2023-02-05T04:34:37.604Z,5.03
2023-02-05T04:37:06.623Z,5.13
2023-02-05T04:39:34.350Z,4.90
2023-02-05T04:42:02.838Z,4.93
2023-02-05T04:44:30.595Z,5.30
2023-02-05T04:46:58.446Z,4.60
2023-02-05T04:49:26.538Z,5.53
2023-02-05T04:51:54.454Z,5.20
2023-02-05T04:54:23.791Z,5.53
2023-02-05T04:56:51.759Z,5.45
2023-02-05T04:59:19.640Z,5.57
2023-02-05T05:01:47.642Z,6.03
2023-02-05T05:04:15.664Z,6.20
2023-02-05T05:06:43.545Z,5.78
2023-02-05T05:09:11.532Z,6.22
2023-02-05T05:11:41.153Z,6.00
2023-02-05T05:14:09.122Z,6.32
2023-02-05T05:16:37.069Z,5.60
2023-02-05T05:19:05.191Z,5.78
2023-02-05T05:21:33.172Z,6.20
2023-02-05T05:24:01.125Z,5.90
2023-02-05T05:26:30.074Z,6.50
2023-02-05T05:28:59.800Z,6.10
2023-02-05T05:31:28.061Z,5.70
2023-02-05T05:33:55.967Z,5.93
2023-02-05T05:36:23.902Z,6.15
2023-02-05T05:38:51.794Z,6.10
2023-02-05T05:41:40.727Z,5.85
2023-02-05T05:44:11.151Z,6.28
2023-02-05T05:46:39.115Z,6.53
2023-02-05T05:49:07.078Z,6.40
2023-02-05T05:51:35.012Z,6.68
2023-02-05T05:54:03.077Z,6.53
2023-02-05T05:56:31.048Z,6.47
2023-02-05T05:58:59.025Z,6.57
2023-02-05T06:01:28.791Z,6.53
2023-02-05T06:03:56.812Z,6.80
2023-02-05T06:06:24.743Z,7.40
2023-02-05T06:08:52.627Z,6.30
2023-02-05T06:11:20.496Z,6.65
2023-02-05T06:13:48.371Z,7.45
2023-02-05T06:16:16.348Z,6.65
2023-02-05T06:18:45.663Z,6.47
2023-02-05T06:21:13.570Z,6.68
2023-02-05T06:23:41.521Z,6.97
2023-02-05T06:26:09.487Z,6.57
2023-02-05T06:28:37.522Z,6.35
2023-02-05T06:31:06.033Z,6.80
2023-02-05T06:33:33.943Z,6.53
2023-02-05T06:36:03.315Z,6.90
2023-02-05T06:38:31.208Z,6.70
2023-02-05T06:40:58.993Z,6.88
2023-02-05T06:43:26.706Z,6.60
2023-02-05T06:45:55.649Z,6.93
2023-02-05T06:48:23.401Z,6.50
2023-02-05T06:50:51.175Z,7.05
2023-02-05T06:53:20.264Z,7.07
2023-02-05T06:55:48.069Z,6.85
2023-02-05T06:58:15.867Z,7.40
2023-02-05T07:00:43.930Z,7.65
2023-02-05T07:03:11.756Z,7.95
2023-02-05T07:05:39.517Z,7.47
2023-02-05T07:08:07.597Z,7.90
2023-02-05T07:10:36.791Z,8.75
2023-02-05T07:13:05.917Z,8.48
2023-02-05T07:15:34.275Z,8.13
2023-02-05T07:18:02.302Z,7.57
2023-02-05T07:20:30.038Z,7.60
2023-02-05T07:22:57.824Z,8.95
2023-02-05T07:25:25.633Z,8.85
2023-02-05T07:27:54.757Z,8.43
2023-02-05T07:30:22.610Z,9.38
2023-02-05T07:32:50.357Z,9.05
2023-02-05T07:35:18.108Z,10.27
2023-02-05T07:37:45.827Z,9.70
2023-02-05T07:40:13.980Z,10.02
2023-02-05T07:42:41.652Z,9.70
2023-02-05T07:45:11.175Z,8.60
2023-02-05T07:47:38.855Z,8.45
2023-02-05T07:50:07.457Z,8.65
2023-02-05T07:52:35.205Z,9.65
2023-02-05T07:55:02.935Z,10.13
2023-02-05T07:57:30.660Z,11.55
2023-02-05T07:59:58.556Z,10.10
2023-02-05T08:02:27.745Z,9.02
2023-02-05T08:04:55.460Z,9.68
2023-02-05T08:07:23.287Z,9.68
2023-02-05T08:09:51.050Z,10.45
2023-02-05T08:12:18.831Z,10.82
2023-02-05T08:14:46.526Z,10.77
2023-02-05T08:17:14.289Z,9.52
2023-02-05T08:19:43.437Z,9.05
2023-02-05T08:22:11.143Z,8.18
2023-02-05T08:24:38.922Z,9.73
2023-02-05T08:27:06.728Z,10.55
2023-02-05T08:29:34.512Z,9.70
2023-02-05T08:32:02.373Z,10.13
2023-02-05T08:34:30.374Z,11.07
2023-02-05T08:36:59.935Z,11.80
2023-02-05T08:39:27.689Z,12.15
2023-02-05T08:41:57.058Z,12.40
2023-02-05T08:44:25.068Z,11.70
2023-02-05T08:46:52.856Z,11.05
2023-02-05T08:49:20.717Z,10.50
2023-02-05T08:51:49.224Z,10.07
2023-02-05T08:54:18.809Z,9.85
2023-02-05T08:56:47.121Z,10.65
2023-02-05T08:59:14.999Z,11.10
2023-02-05T09:01:45.097Z,10.48
2023-02-05T09:04:14.452Z,9.90
2023-02-05T09:06:42.658Z,9.48
2023-02-05T09:09:11.367Z,9.73
2023-02-05T09:11:40.887Z,10.90
2023-02-05T09:14:09.386Z,10.02
2023-02-05T09:16:37.360Z,11.05
2023-02-05T09:19:05.201Z,9.75
2023-02-05T09:21:33.045Z,9.18
2023-02-05T09:24:00.751Z,9.55
2023-02-05T09:26:28.545Z,9.38
2023-02-05T09:28:58.466Z,9.07
2023-02-05T09:31:26.321Z,9.20
2023-02-05T09:33:55.749Z,10.15
2023-02-05T09:36:24.638Z,8.68
2023-02-05T09:39:11.888Z,10.32
2023-02-05T09:41:52.129Z,11.35
2023-02-05T09:44:39.871Z,12.18
2023-02-05T09:47:13.184Z,11.68
2023-02-05T09:49:48.734Z,11.85
2023-02-05T09:52:21.071Z,13.20
2023-02-05T09:54:54.534Z,13.63
2023-02-05T09:57:33.803Z,11.32
2023-02-05T10:00:05.850Z,10.27
2023-02-05T10:02:44.711Z,11.10
2023-02-05T10:05:15.828Z,12.75
2023-02-05T10:07:52.802Z,10.27
2023-02-05T10:10:26.950Z,9.40
2023-02-05T10:13:24.064Z,9.73
2023-02-05T10:16:33.360Z,10.77
2023-02-05T10:19:20.130Z,11.07
2023-02-05T10:22:04.681Z,10.10
2023-02-05T10:25:03.709Z,10.15
2023-02-05T10:27:41.593Z,9.70
2023-02-05T10:30:22.179Z,9.80
2023-02-05T10:32:58.748Z,9.18
2023-02-05T10:35:35.894Z,9.68
2023-02-05T10:38:06.850Z,10.38
2023-02-05T10:40:40.416Z,11.40
2023-02-05T10:43:19.395Z,11.23
2023-02-05T10:45:47.551Z,11.00
2023-02-05T10:48:38.270Z,10.65
2023-02-05T10:51:08.204Z,10.23
2023-02-05T10:53:36.926Z,11.65
2023-02-05T10:56:06.732Z,11.13
2023-02-05T10:58:40.395Z,10.68
2023-02-05T11:01:12.508Z,11.68
2023-02-05T11:03:47.407Z,13.38
2023-02-05T11:06:15.504Z,12.40
2023-02-05T11:08:45.164Z,11.57
2023-02-05T11:11:22.768Z,13.13
2023-02-05T11:13:55.155Z,14.00
2023-02-05T11:16:23.724Z,11.57
2023-02-05T11:19:01.762Z,12.57
2023-02-05T11:21:49.427Z,11.82
2023-02-05T11:24:29.090Z,12.55
2023-02-05T11:27:29.405Z,12.23
2023-02-05T11:29:59.894Z,12.07
2023-02-05T11:32:36.255Z,12.57
2023-02-05T11:35:27.452Z,12.80
2023-02-05T11:38:07.051Z,14.20
2023-02-05T11:40:36.455Z,19.42
2023-02-05T11:43:07.536Z,16.88
2023-02-05T11:45:39.294Z,14.27
2023-02-05T11:48:22.338Z,13.35
2023-02-05T11:50:51.759Z,12.18
2023-02-05T11:53:21.954Z,12.73
2023-02-05T11:55:55.198Z,11.50
2023-02-05T11:58:36.058Z,10.93
2023-02-05T12:01:07.031Z,14.45
2023-02-05T12:03:36.147Z,14.20
2023-02-05T12:06:12.797Z,13.00
2023-02-05T12:08:46.270Z,12.55
2023-02-05T12:11:57.157Z,13.80
2023-02-05T12:14:33.949Z,11.23
2023-02-05T12:17:13.836Z,11.50
2023-02-05T12:19:52.914Z,11.30
2023-02-05T12:22:39.498Z,12.48
2023-02-05T12:25:22.962Z,14.00
2023-02-05T12:28:04.970Z,13.57
2023-02-05T12:30:44.855Z,14.75
2023-02-05T12:33:28.607Z,14.27
2023-02-05T12:36:04.342Z,13.05
2023-02-05T12:38:45.413Z,12.02
2023-02-05T12:41:27.121Z,12.80
2023-02-05T12:44:05.610Z,11.77
2023-02-05T12:46:57.911Z,12.70
2023-02-05T12:49:40.359Z,13.02
2023-02-05T12:52:29.227Z,11.20
2023-02-05T12:55:07.394Z,12.63
2023-02-05T12:57:43.902Z,12.57
2023-02-05T13:00:16.793Z,13.85
2023-02-05T13:05:22.140Z,15.27
2023-02-05T13:07:54.037Z,15.13
2023-02-05T13:10:28.350Z,15.57
2023-02-05T13:13:01.422Z,14.43
2023-02-05T13:15:34.162Z,14.45
2023-02-05T13:20:56.898Z,13.02
2023-02-05T13:23:42.464Z,15.13
2023-02-05T13:26:34.042Z,15.82
2023-02-05T13:29:07.523Z,13.65
2023-02-05T13:31:40.576Z,14.13
2023-02-05T13:34:10.485Z,13.60
2023-02-05T13:37:17.287Z,13.40
2023-02-05T13:40:10.228Z,12.60
2023-02-05T13:43:16.274Z,13.32
2023-02-05T13:46:08.643Z,13.60
2023-02-05T13:49:03.880Z,15.03
2023-02-05T13:51:45.001Z,13.70
2023-02-05T13:54:35.694Z,13.32
2023-02-05T13:57:28.549Z,13.82
2023-02-05T13:59:58.989Z,11.75
2023-02-05T14:02:35.561Z,12.18
2023-02-05T14:05:05.352Z,12.20
2023-02-05T14:07:35.134Z,12.63
2023-02-05T14:10:03.869Z,12.48
2023-02-05T14:12:34.699Z,12.00
2023-02-05T14:15:36.210Z,12.38
2023-02-05T14:18:04.570Z,15.10
2023-02-05T14:20:45.506Z,18.00
2023-02-05T14:23:18.498Z,14.32
2023-02-05T14:28:36.394Z,14.65
2023-02-05T14:31:07.533Z,16.35
2023-02-05T14:33:40.389Z,14.88
2023-02-05T14:36:34.937Z,17.73
2023-02-05T14:39:21.646Z,14.70
2023-02-05T14:41:55.175Z,15.38
2023-02-05T14:44:29.254Z,15.43
2023-02-05T14:47:05.876Z,14.30
2023-02-05T14:49:41.512Z,13.65
2023-02-05T14:52:21.344Z,12.63
2023-02-05T14:54:52.294Z,13.00
2023-02-05T14:57:26.913Z,13.85
2023-02-05T14:59:59.473Z,13.88
2023-02-05T15:03:02.966Z,14.73
2023-02-05T15:05:37.689Z,13.63
2023-02-05T15:08:11.991Z,13.63
2023-02-05T15:10:48.757Z,14.07
2023-02-05T15:13:19.766Z,14.13
2023-02-05T15:16:10.398Z,13.27
2023-02-05T15:18:42.375Z,14.32
2023-02-05T15:21:15.377Z,14.13
2023-02-05T15:23:46.472Z,15.00
2023-02-05T15:26:23.682Z,15.63
2023-02-05T15:28:58.949Z,16.27
2023-02-05T15:31:33.913Z,14.82
2023-02-05T15:34:20.704Z,15.35
2023-02-05T15:36:54.618Z,15.60
2023-02-05T15:39:29.709Z,16.17
2023-02-05T15:42:01.073Z,18.45
2023-02-05T15:44:31.472Z,16.00
2023-02-05T15:47:01.395Z,16.40
2023-02-05T15:49:38.952Z,18.27
2023-02-05T15:52:07.996Z,16.35
2023-02-05T15:54:37.767Z,21.85
2023-02-05T15:57:07.033Z,21.48
2023-02-05T15:59:35.610Z,20.35
2023-02-05T16:02:07.634Z,19.10
2023-02-05T16:04:39.076Z,16.33
2023-02-05T16:07:20.373Z,16.15
2023-02-05T16:09:49.436Z,15.52
2023-02-05T16:12:17.512Z,15.30
2023-02-05T16:14:45.485Z,14.68
2023-02-05T16:17:20.278Z,13.77
2023-02-05T16:19:53.927Z,14.20
2023-02-05T16:22:31.448Z,14.93
2023-02-05T16:25:04.454Z,14.07
2023-02-05T16:27:36.767Z,13.63
2023-02-05T16:30:08.335Z,13.43
2023-02-05T16:32:42.314Z,14.25
2023-02-05T16:35:30.520Z,13.80
2023-02-05T16:37:58.705Z,13.93
2023-02-05T16:40:35.686Z,14.25
2023-02-05T16:43:21.456Z,14.60
2023-02-05T16:46:20.451Z,13.05
2023-02-05T16:48:51.683Z,13.13
2023-02-05T16:51:35.476Z,12.38
2023-02-05T16:54:23.072Z,12.15
2023-02-05T16:56:56.337Z,12.80
2023-02-05T16:59:26.545Z,12.38
2023-02-05T17:01:54.599Z,12.23
2023-02-05T17:04:26.973Z,11.85
2023-02-05T17:06:57.932Z,12.27
2023-02-05T17:09:35.508Z,12.25
2023-02-05T17:12:40.057Z,12.32
2023-02-05T17:15:27.713Z,11.65
2023-02-05T17:17:57.652Z,11.70
2023-02-05T17:20:28.131Z,12.45
2023-02-05T17:23:12.852Z,11.75
2023-02-05T17:25:42.742Z,12.68
2023-02-05T17:28:16.712Z,12.27
2023-02-05T17:30:46.479Z,13.82
2023-02-05T17:33:18.448Z,13.45
2023-02-05T17:35:46.485Z,12.93
2023-02-05T17:38:16.027Z,12.70
2023-02-05T17:40:43.978Z,12.90
2023-02-05T17:43:11.818Z,11.90
2023-02-05T17:45:41.317Z,13.18
2023-02-05T17:48:10.058Z,12.70
2023-02-05T17:50:38.513Z,12.43
2023-02-05T17:53:06.404Z,12.45
2023-02-05T17:55:35.559Z,14.35
2023-02-05T17:58:03.707Z,13.63
2023-02-05T18:00:32.916Z,13.18
2023-02-05T18:03:00.991Z,13.32
2023-02-05T18:05:28.893Z,13.02
2023-02-05T18:07:58.658Z,13.30
2023-02-05T18:10:29.058Z,12.93
2023-02-05T18:12:58.273Z,13.57
2023-02-05T18:15:27.748Z,12.82
2023-02-05T18:17:55.567Z,12.88
2023-02-05T18:20:23.672Z,13.48
2023-02-05T18:22:51.794Z,12.90
2023-02-05T18:25:19.772Z,13.00
2023-02-05T18:27:48.856Z,12.68
2023-02-05T18:30:18.370Z,13.48
2023-02-05T18:32:46.209Z,12.75
2023-02-05T18:35:14.759Z,13.25
2023-02-05T18:37:43.338Z,13.27
2023-02-05T18:40:13.304Z,12.98
2023-02-05T18:42:41.774Z,12.32
2023-02-05T18:45:10.626Z,12.32
2023-02-05T18:47:40.126Z,13.10
2023-02-05T18:50:10.254Z,12.60
2023-02-05T18:52:38.454Z,11.90
2023-02-05T18:55:07.618Z,12.02
2023-02-05T18:57:35.471Z,12.18
2023-02-05T19:00:03.489Z,12.38
2023-02-05T19:02:33.119Z,13.05
2023-02-05T19:05:04.085Z,13.07
2023-02-05T19:07:31.858Z,13.80
2023-02-05T19:09:59.706Z,13.45
2023-02-05T19:12:27.487Z,13.68
2023-02-05T19:14:55.280Z,12.20
2023-02-05T19:17:25.881Z,12.70
2023-02-05T19:19:53.800Z,12.57
2023-02-05T19:22:22.939Z,12.20
2023-02-05T19:24:50.713Z,12.82
2023-02-05T19:27:18.549Z,12.00
2023-02-05T19:29:46.499Z,11.88
2023-02-05T19:32:14.261Z,12.52
2023-02-05T19:34:43.300Z,12.32
2023-02-05T19:37:12.343Z,11.13
2023-02-05T19:39:41.633Z,11.10
2023-02-05T19:42:09.428Z,11.55
2023-02-05T19:44:37.185Z,10.70
2023-02-05T19:47:05.301Z,10.65
2023-02-05T19:49:33.175Z,11.13
2023-02-05T19:52:01.471Z,11.13
2023-02-05T19:54:30.465Z,10.88
2023-02-05T19:56:59.624Z,10.90
2023-02-05T19:59:27.990Z,10.80
2023-02-05T20:01:56.012Z,11.68
2023-02-05T20:04:26.055Z,11.80
2023-02-05T20:06:56.857Z,11.35
2023-02-05T20:09:24.780Z,10.95
2023-02-05T20:11:54.422Z,11.80
2023-02-05T20:14:24.353Z,11.13
2023-02-05T20:16:52.908Z,11.40
2023-02-05T20:19:21.209Z,11.55
2023-02-05T20:21:50.093Z,12.02
2023-02-05T20:24:18.154Z,10.95
2023-02-05T20:26:48.297Z,11.43
2023-02-05T20:29:34.087Z,10.45
2023-02-05T20:32:03.355Z,10.77
2023-02-05T20:34:33.995Z,11.35
2023-02-05T20:37:05.854Z,11.87
2023-02-05T20:39:35.454Z,12.63
2023-02-05T20:42:03.766Z,10.85
2023-02-05T20:44:36.086Z,11.98
2023-02-05T20:47:07.382Z,12.15
2023-02-05T20:49:35.633Z,11.32
2023-02-05T20:52:03.800Z,10.48
2023-02-05T20:54:31.792Z,9.98
2023-02-05T20:57:00.057Z,10.32
2023-02-05T20:59:28.721Z,9.45
2023-02-05T21:01:56.661Z,8.48
2023-02-05T21:04:26.616Z,8.52
2023-02-05T21:06:54.576Z,8.77
2023-02-05T21:09:22.870Z,8.57
2023-02-05T21:11:55.208Z,8.45
2023-02-05T21:14:23.092Z,9.02
2023-02-05T21:16:50.961Z,8.95
2023-02-05T21:19:19.346Z,8.45
2023-02-05T21:21:49.857Z,7.78
2023-02-05T21:24:18.436Z,8.27
2023-02-05T21:26:47.631Z,8.48
2023-02-05T21:29:17.023Z,9.48
2023-02-05T21:31:48.617Z,9.30
2023-02-05T21:34:18.712Z,8.32
2023-02-05T21:36:50.279Z,8.40
2023-02-05T21:39:20.186Z,8.77
2023-02-05T21:41:48.554Z,7.47
2023-02-05T21:44:16.365Z,8.25
2023-02-05T21:46:44.232Z,7.93
2023-02-05T21:49:12.801Z,8.05
2023-02-05T21:51:42.364Z,8.10
2023-02-05T21:54:12.352Z,7.95
2023-02-05T21:56:42.811Z,8.07
2023-02-05T21:59:11.426Z,7.93
2023-02-05T22:01:39.515Z,8.00
2023-02-05T22:04:11.992Z,7.70
2023-02-05T22:06:39.848Z,7.95
2023-02-05T22:09:09.327Z,7.63
2023-02-05T22:11:40.487Z,7.65
2023-02-05T22:14:08.519Z,8.10
2023-02-05T22:16:37.402Z,7.82
2023-02-05T22:19:06.324Z,7.88
2023-02-05T22:21:35.752Z,7.95
2023-02-05T22:24:04.940Z,7.20
2023-02-05T22:26:34.157Z,8.20
2023-02-05T22:29:05.282Z,7.68
2023-02-05T22:31:34.101Z,7.60
2023-02-05T22:34:02.072Z,7.22
2023-02-05T22:36:32.759Z,7.82
2023-02-05T22:39:00.800Z,7.65
2023-02-05T22:41:31.624Z,7.97
2023-02-05T22:44:00.547Z,7.55
2023-02-05T22:46:31.657Z,8.30
2023-02-05T22:49:00.753Z,8.27
2023-02-05T22:51:31.541Z,7.63
2023-02-05T22:54:00.122Z,8.20
2023-02-05T22:56:28.073Z,7.72
2023-02-05T22:58:56.467Z,8.23
2023-02-05T23:01:27.097Z,7.93
2023-02-05T23:03:56.868Z,8.02
2023-02-05T23:06:27.087Z,7.63
2023-02-05T23:08:57.002Z,7.90
2023-02-05T23:11:26.327Z,7.55
2023-02-05T23:13:54.111Z,8.05
2023-02-05T23:16:27.988Z,8.18
2023-02-05T23:19:00.257Z,7.65
2023-02-05T23:21:30.347Z,8.20
2023-02-05T23:23:58.268Z,7.45
2023-02-05T23:26:28.169Z,8.00
2023-02-05T23:28:57.014Z,8.07
2023-02-05T23:31:26.302Z,7.97
2023-02-05T23:33:54.922Z,8.27
2023-02-05T23:36:24.391Z,8.20
2023-02-05T23:38:52.198Z,8.00
2023-02-05T23:41:35.667Z,8.23
2023-02-05T23:44:06.282Z,8.05
2023-02-05T23:46:34.428Z,8.02
2023-02-05T23:49:02.261Z,8.02
2023-02-05T23:51:31.648Z,8.00
2023-02-05T23:53:59.799Z,7.78
2023-02-05T23:56:27.668Z,7.63
2023-02-05T23:58:55.513Z,6.63
